Dauntless Aviation
Airports Europe Spain
LECU
ECV

Madrid-Cuatro Vientos Airport

Madrid, SPAIN

Airport Info
Suggest Updated Information for this Airport

Location

Latitude / Longitude: 40°22'14"N / 3°47'6"W
  40°22.242'N / 3°47.106'W
  40.3707 / -3.7851

Runway Information

Runway 10 /28

Dimensions: 4921 x 98 ft.
Surface: ASP
 
Runway 10
Runway 28
Latitude: 40.371122 40.370233
Longitude: -3.793928 -3.776353
Elevation: 2267 ft. 2267 ft.
Runway true heading: 91.3 271.3
 

Runway 10L/28R

Dimensions: 3697 x 148 ft.
Surface: ASP
 
Runway 10L
Runway 28R
Latitude: 40.372342 40.371622
Longitude: -3.790706 -3.777589
Elevation: 2264 ft. 2264 ft.
Runway true heading: 91.3 271.3
 

Instrument Procedures

  LEVS Parking / Docking Chart 1
  Aerodrome Chart 1.1-1.2

IAPs (Instrument Approach Procedures)

  Aerodrome Information (Textual)
  Visual Approach Chart 1
  Aerodrome Obstacle Chart Rwy 1 Rwy 09
  Aerodrome Obstacle Chart Rwy 2 Rwy 27
Satellite photo at:
Airport distance calculator
From:
Weather Reports

METAR

LEVS
0.9nm E
LEVS 130530Z VRB02KT CAVOK 09/04 Q1018
LEGT
6.1nm SE
LEGT 130530Z 31004KT 280V350 CAVOK 09/04 Q1018
LEMD
12.1nm NE
LEMD 130530Z 28003KT 240V350 CAVOK 10/03 Q1018 NOSIG
LETO
15.7nm NE
LETO 130530Z 04004KT CAVOK 05/03 Q1018 NOSIG

TAF

LEVS
0.9nm E
TAF LEVS 130500Z 1306/1406 30006KT CAVOK TX22/1315Z TN08/1405Z BECMG 1310/1312 24010KT PROB40 TEMPO 1314/1320 24015G25KT
LEGT
6.1nm SE
TAF LEGT 130500Z 1306/1406 30006KT CAVOK TX22/1315Z TN08/1405Z BECMG 1310/1312 24010KT PROB40 TEMPO 1314/1320 24015G25KT
LEMD
12.1nm NE
TAF LEMD 130500Z 1306/1412 29008KT CAVOK TX22/1315Z TN07/1405Z BECMG 1310/1312 23012KT PROB40 TEMPO 1313/1320 24015G25KT
LETO
15.7nm NE
TAF LETO 130500Z 1306/1406 VRB04KT CAVOK TX21/1315Z TN05/1405Z BECMG 1310/1312 24010KT PROB40 TEMPO 1314/1318 24015G25KT
LECV
16.1nm N
TAF LECV 130500Z 1306/1406 VRB04KT CAVOK TX17/1316Z TN05/1405Z BECMG 1310/1312 24010KT PROB30 TEMPO 1314/1320 24018G30KT
Safelog

 

Dauntless Aviation

© 2007-2021 Dauntless Aviation, all rights reserved
Information provided via PilotNav comes from a variety of official and unofficial data sources. As errors are possible, do not use PilotNav for primary flight planning purposes. Verify any information that you receive via PilotNav with current and canonical charts and other official documents. The material in this database is subject to database copyrights held by Dauntless Aviation and may not be copied without the express permission of Dauntless Aviation - licenses for use of part of all of this data are available for purchase; enquire via the Dauntless Aviation helpdesk. A number of mechanisms and markers exist in the database to protect against and identify infringement / copyright. Automated queries against this website are strictly prohibited, and all activity is logged and analyzed.